Accueil
METAR-TAF:

METAR-TAF

Aéroports :

Middle Wallop, Angleterre

Army Air Corps Middle Wallop

latitude: 51-09N, longitude: 001-34W, altitude: 91 m

Observation

Le bulletin a été fait il y a 1 heure et 4 minutes, à 02:50 UTC
Vent 12 kt de nord-est
Température 1°C
Humidité 100%
Pression 979 hPa
Visibilité: 2000 m

METAR: EGVP 110250Z AUTO 04012KT 2000 // OVC002/// 01/01 Q0979

Heure: 03:54 (03:54 UTC)


TAF: absent

Observations et prévisions météorologiques de plus de 4000 aéroports (messages METAR et TAF).

Les stations disponibles sont représentées par des disques jaunes et rouges sur la carte.

Passer la souris dessus pour voir le nom de la station.

Cliquer dessus pour voir les observations et prévisions météorologiques.

Pour changer de carte: cliquez sur les boutons verts avec une croix noire pour zoomer, sur le bouton vert avec un tiret pour effectuer un zoom arrière, ou sur les flèches vertes pour les cartes adjacentes.


METAR-TAF: